createdAt,value
2023-01-18T00:00:53.399Z,0.30
2023-01-18T00:03:19.970Z,0.30
2023-01-18T00:05:46.535Z,0.30
2023-01-18T00:08:18.805Z,0.40
2023-01-18T00:10:45.436Z,0.40
2023-01-18T00:13:12.428Z,0.40
2023-01-18T00:15:39.490Z,0.40
2023-01-18T00:18:06.316Z,0.40
2023-01-18T00:20:32.948Z,0.40
2023-01-18T00:23:01.382Z,0.40
2023-01-18T00:25:28.774Z,0.40
2023-01-18T00:27:56.127Z,0.40
2023-01-18T00:30:26.079Z,0.40
2023-01-18T00:32:55.178Z,0.40
2023-01-18T00:35:22.621Z,0.40
2023-01-18T00:37:51.531Z,0.40
2023-01-18T00:40:22.811Z,0.40
2023-01-18T00:43:08.070Z,0.40
2023-01-18T00:45:34.745Z,0.40
2023-01-18T00:48:02.549Z,0.40
2023-01-18T00:50:29.488Z,0.40
2023-01-18T00:52:58.431Z,0.30
2023-01-18T00:55:26.017Z,0.30
2023-01-18T00:57:52.686Z,0.30
2023-01-18T01:00:19.411Z,0.30
2023-01-18T01:02:46.172Z,0.30
2023-01-18T01:05:36.999Z,0.30
2023-01-18T01:08:05.763Z,0.20
2023-01-18T01:10:33.918Z,0.30
2023-01-18T01:13:19.237Z,0.30
2023-01-18T01:16:04.745Z,0.20
2023-01-18T01:18:50.303Z,0.30
2023-01-18T01:21:35.821Z,0.30
2023-01-18T01:24:21.203Z,0.30
2023-01-18T01:26:47.759Z,0.30
2023-01-18T01:29:15.211Z,0.30
2023-01-18T01:31:41.805Z,0.30
2023-01-18T01:34:08.579Z,0.30
2023-01-18T01:36:35.176Z,0.30
2023-01-18T01:39:01.796Z,0.30
2023-01-18T01:41:35.045Z,0.30
2023-01-18T01:44:28.051Z,0.30
2023-01-18T01:47:03.079Z,0.30
2023-01-18T01:49:40.106Z,0.20
2023-01-18T01:52:09.505Z,0.20
2023-01-18T01:54:41.966Z,0.30
2023-01-18T01:57:22.051Z,0.30
2023-01-18T02:00:05.228Z,0.20
2023-01-18T02:02:34.864Z,0.20
2023-01-18T02:05:04.436Z,0.30
2023-01-18T02:07:32.625Z,0.20
2023-01-18T02:10:00.615Z,0.30
2023-01-18T02:12:28.851Z,0.30
2023-01-18T02:14:57.808Z,0.30
2023-01-18T02:17:53.967Z,0.30
2023-01-18T02:20:58.936Z,0.30
2023-01-18T02:23:43.170Z,0.30
2023-01-18T02:26:26.248Z,0.20
2023-01-18T02:29:18.159Z,0.30
2023-01-18T02:32:00.063Z,0.30
2023-01-18T02:34:41.352Z,0.20
2023-01-18T02:37:29.180Z,0.20
2023-01-18T02:40:14.360Z,0.30
2023-01-18T02:43:02.178Z,0.30
2023-01-18T02:46:03.953Z,0.30
2023-01-18T02:48:35.581Z,0.30
2023-01-18T02:51:02.484Z,0.30
2023-01-18T02:53:30.163Z,0.30
2023-01-18T02:56:06.762Z,0.30
2023-01-18T02:58:38.938Z,0.30
2023-01-18T03:01:29.732Z,0.30
2023-01-18T03:04:01.990Z,0.30
2023-01-18T03:06:30.017Z,0.30
2023-01-18T03:08:58.995Z,0.20
2023-01-18T03:11:51.379Z,0.20
2023-01-18T03:14:29.084Z,0.20
2023-01-18T03:17:09.816Z,0.20
2023-01-18T03:20:06.605Z,0.20
2023-01-18T03:23:26.867Z,0.30
2023-01-18T03:25:56.685Z,0.20
2023-01-18T03:28:55.707Z,0.20
2023-01-18T03:32:00.245Z,0.20
2023-01-18T03:34:37.841Z,0.20
2023-01-18T03:37:09.859Z,0.20
2023-01-18T03:39:42.583Z,0.20
2023-01-18T03:42:23.739Z,0.20
2023-01-18T03:45:03.016Z,0.20
2023-01-18T03:47:30.319Z,0.30
2023-01-18T03:49:58.052Z,0.20
2023-01-18T03:52:31.901Z,0.20
2023-01-18T03:55:34.558Z,0.20
2023-01-18T03:58:07.308Z,0.30
2023-01-18T04:00:33.900Z,0.30
2023-01-18T04:03:01.277Z,0.30
2023-01-18T04:05:28.480Z,0.30
2023-01-18T04:07:55.131Z,0.30
2023-01-18T04:10:22.223Z,0.30
2023-01-18T04:12:48.831Z,0.30
2023-01-18T04:15:15.634Z,0.30
2023-01-18T04:17:42.223Z,0.30
2023-01-18T04:20:09.607Z,0.30
2023-01-18T04:22:36.302Z,0.30
2023-01-18T04:25:03.071Z,0.30
2023-01-18T04:27:29.769Z,0.30
2023-01-18T04:29:58.432Z,0.30
2023-01-18T04:32:25.032Z,0.30
2023-01-18T04:34:51.604Z,0.30
2023-01-18T04:37:18.137Z,0.30
2023-01-18T04:39:46.695Z,0.30
2023-01-18T04:42:13.333Z,0.30
2023-01-18T04:44:39.898Z,0.30
2023-01-18T04:47:06.440Z,0.30
2023-01-18T04:49:32.989Z,0.30
2023-01-18T04:51:59.531Z,0.20
2023-01-18T04:54:26.297Z,0.20
2023-01-18T04:56:53.068Z,0.20
2023-01-18T04:59:19.763Z,0.20
2023-01-18T05:01:46.348Z,0.20
2023-01-18T05:04:12.973Z,0.20
2023-01-18T05:06:39.547Z,0.20
2023-01-18T05:09:06.986Z,0.20
2023-01-18T05:11:33.564Z,0.20
2023-01-18T05:14:00.180Z,0.20
2023-01-18T05:16:27.291Z,0.20
2023-01-18T05:18:54.054Z,0.20
2023-01-18T05:21:20.637Z,0.20
2023-01-18T05:23:47.348Z,0.10
2023-01-18T05:26:20.833Z,0.20
2023-01-18T05:28:48.596Z,0.10
2023-01-18T05:31:16.120Z,0.10
2023-01-18T05:33:42.702Z,0.10
2023-01-18T05:36:09.551Z,0.10
2023-01-18T05:38:36.156Z,0.00
2023-01-18T05:41:03.156Z,0.10
2023-01-18T05:43:30.292Z,0.10
2023-01-18T05:45:57.079Z,0.10
2023-01-18T05:48:24.094Z,0.10
2023-01-18T05:50:50.926Z,0.10
2023-01-18T05:53:20.734Z,0.10
2023-01-18T05:55:55.115Z,0.10
2023-01-18T05:58:21.741Z,0.10
2023-01-18T06:00:48.443Z,0.10
2023-01-18T06:03:15.031Z,0.10
2023-01-18T06:05:41.653Z,0.10
2023-01-18T06:08:08.204Z,0.10
2023-01-18T06:10:34.824Z,0.10
2023-01-18T06:13:01.623Z,0.10
2023-01-18T06:15:28.180Z,0.10
2023-01-18T06:17:54.842Z,0.10
2023-01-18T06:20:21.483Z,0.10
2023-01-18T06:22:48.075Z,0.10
2023-01-18T06:25:14.711Z,0.10
2023-01-18T06:27:41.691Z,0.10
2023-01-18T06:30:10.921Z,0.10
2023-01-18T06:32:37.501Z,0.00
2023-01-18T06:35:04.434Z,0.00
2023-01-18T06:37:30.989Z,0.00
2023-01-18T06:39:57.587Z,0.10
2023-01-18T06:42:24.402Z,0.10
2023-01-18T06:44:50.989Z,0.00
2023-01-18T06:47:19.823Z,0.00
2023-01-18T06:49:50.203Z,0.00
2023-01-18T06:52:16.848Z,0.00
2023-01-18T06:54:44.690Z,0.10
2023-01-18T06:57:12.179Z,0.00
2023-01-18T06:59:39.961Z,0.00
2023-01-18T07:02:07.264Z,0.00
2023-01-18T07:04:37.793Z,0.00
2023-01-18T07:07:04.376Z,0.00
2023-01-18T07:09:31.052Z,-0.10
2023-01-18T07:11:57.615Z,0.00
2023-01-18T07:14:24.189Z,0.00
2023-01-18T07:16:50.861Z,0.00
2023-01-18T07:19:17.456Z,0.00
2023-01-18T07:21:44.568Z,-0.10
2023-01-18T07:24:11.293Z,-0.10
2023-01-18T07:26:37.865Z,0.00
2023-01-18T07:29:04.585Z,0.00
2023-01-18T07:31:31.740Z,-0.10
2023-01-18T07:33:58.456Z,-0.10
2023-01-18T07:36:25.070Z,-0.10
2023-01-18T07:38:52.222Z,-0.10
2023-01-18T07:41:19.120Z,0.00
2023-01-18T07:43:45.999Z,0.00
2023-01-18T07:46:15.925Z,0.00
2023-01-18T07:48:42.880Z,0.00
2023-01-18T07:51:10.482Z,0.00
2023-01-18T07:53:38.237Z,0.00
2023-01-18T07:56:07.320Z,-0.10
2023-01-18T07:58:35.795Z,-0.20
2023-01-18T08:01:07.525Z,-0.20
2023-01-18T08:03:34.227Z,-0.20
2023-01-18T08:06:01.267Z,-0.10
2023-01-18T08:08:28.976Z,-0.10
2023-01-18T08:10:56.822Z,-0.10
2023-01-18T08:13:24.562Z,-0.10
2023-01-18T08:15:51.621Z,-0.10
2023-01-18T08:18:18.378Z,-0.10
2023-01-18T08:20:48.886Z,0.00
2023-01-18T08:23:16.786Z,0.00
2023-01-18T08:25:45.281Z,0.00
2023-01-18T08:28:11.922Z,0.00
2023-01-18T08:30:46.462Z,0.00
2023-01-18T08:33:13.697Z,0.00
2023-01-18T08:35:43.193Z,0.10
2023-01-18T08:38:10.804Z,0.10
2023-01-18T08:40:37.611Z,0.10
2023-01-18T08:43:05.523Z,0.20
2023-01-18T08:45:32.918Z,0.30
2023-01-18T08:48:05.598Z,0.20
2023-01-18T08:50:33.893Z,0.20
2023-01-18T08:53:01.150Z,0.30
2023-01-18T08:55:29.551Z,0.40
2023-01-18T08:57:59.176Z,0.40
2023-01-18T09:00:30.179Z,0.50
2023-01-18T09:02:58.087Z,0.40
2023-01-18T09:05:26.985Z,0.40
2023-01-18T09:07:54.624Z,0.50
2023-01-18T09:10:22.173Z,0.50
2023-01-18T09:12:48.800Z,0.40
2023-01-18T09:15:15.517Z,0.30
2023-01-18T09:17:42.106Z,0.20
2023-01-18T09:20:10.562Z,0.20
2023-01-18T09:22:37.991Z,0.30
2023-01-18T09:25:06.014Z,0.30
2023-01-18T09:27:33.369Z,0.10
2023-01-18T09:30:00.129Z,0.30
2023-01-18T09:32:27.402Z,0.40
2023-01-18T09:34:54.802Z,0.40
2023-01-18T09:37:21.737Z,0.40
2023-01-18T09:39:52.279Z,0.40
2023-01-18T09:42:26.845Z,0.50
2023-01-18T09:44:58.302Z,0.50
2023-01-18T09:47:34.338Z,0.50
2023-01-18T09:50:15.076Z,0.50
2023-01-18T09:52:50.937Z,0.50
2023-01-18T09:55:51.820Z,0.60
2023-01-18T09:58:30.294Z,0.50
2023-01-18T10:01:06.291Z,0.50
2023-01-18T10:03:43.257Z,0.60
2023-01-18T10:06:19.442Z,0.60
2023-01-18T10:08:54.085Z,0.70
2023-01-18T10:11:31.245Z,0.80
2023-01-18T10:14:08.929Z,0.80
2023-01-18T10:16:37.726Z,0.90
2023-01-18T10:19:10.898Z,0.90
2023-01-18T10:21:51.460Z,1.00
2023-01-18T10:24:27.697Z,1.20
2023-01-18T10:27:10.700Z,1.00
2023-01-18T10:29:50.397Z,1.20
2023-01-18T10:32:23.581Z,1.10
2023-01-18T10:34:51.870Z,1.00
2023-01-18T10:37:27.460Z,1.00
2023-01-18T10:40:01.412Z,1.00
2023-01-18T10:42:38.355Z,1.00
2023-01-18T10:45:21.160Z,1.00
2023-01-18T10:47:48.768Z,1.10
2023-01-18T10:50:19.794Z,1.30
2023-01-18T10:52:46.377Z,1.50
2023-01-18T10:55:19.375Z,1.40
2023-01-18T10:57:51.899Z,1.50
2023-01-18T11:00:30.703Z,1.60
2023-01-18T11:02:59.217Z,1.60
2023-01-18T11:05:30.872Z,1.60
2023-01-18T11:08:25.119Z,1.40
2023-01-18T11:11:00.741Z,1.50
2023-01-18T11:13:43.740Z,1.20
2023-01-18T11:16:22.259Z,1.30
2023-01-18T11:19:05.949Z,1.20
2023-01-18T11:21:45.563Z,1.00
2023-01-18T11:24:29.318Z,1.20
2023-01-18T11:27:03.535Z,1.10
2023-01-18T11:29:34.671Z,1.20
2023-01-18T11:32:05.086Z,1.30
2023-01-18T11:34:34.700Z,1.30
2023-01-18T11:37:02.027Z,1.30
2023-01-18T11:39:30.093Z,1.30
2023-01-18T11:42:28.214Z,1.20
2023-01-18T11:45:00.837Z,1.20
2023-01-18T11:47:53.146Z,1.20
2023-01-18T11:51:02.155Z,1.30
2023-01-18T11:53:48.835Z,1.40
2023-01-18T11:56:35.477Z,1.40
2023-01-18T11:59:04.573Z,1.40
2023-01-18T12:02:02.540Z,1.50
2023-01-18T12:04:56.013Z,1.60
2023-01-18T12:07:49.837Z,1.60
2023-01-18T12:10:23.470Z,1.40
2023-01-18T12:13:22.582Z,1.50
2023-01-18T12:16:11.048Z,1.50
2023-01-18T12:19:05.010Z,1.40
2023-01-18T12:21:57.697Z,1.40
2023-01-18T12:24:55.003Z,1.30
2023-01-18T12:28:17.500Z,1.40
2023-01-18T12:31:11.203Z,1.40
2023-01-18T12:34:02.826Z,1.50
2023-01-18T12:36:51.683Z,1.60
2023-01-18T12:39:53.411Z,1.60
2023-01-18T12:42:48.673Z,1.60
2023-01-18T12:45:32.470Z,1.60
2023-01-18T12:48:21.806Z,1.70
2023-01-18T12:50:50.119Z,1.80
2023-01-18T12:53:28.686Z,1.80
2023-01-18T12:55:56.144Z,1.90
2023-01-18T12:58:26.191Z,1.70
2023-01-18T13:01:04.306Z,1.80
2023-01-18T13:03:39.351Z,1.70
2023-01-18T13:06:06.155Z,1.70
2023-01-18T13:08:47.113Z,1.90
2023-01-18T13:11:19.628Z,1.80
2023-01-18T13:13:51.615Z,1.70
2023-01-18T13:16:56.886Z,1.70
2023-01-18T13:19:34.131Z,1.80
2023-01-18T13:22:23.176Z,1.70
2023-01-18T13:25:08.799Z,1.60
2023-01-18T13:27:37.580Z,1.60
2023-01-18T13:30:16.810Z,1.60
2023-01-18T13:32:45.311Z,1.70
2023-01-18T13:35:21.371Z,1.90
2023-01-18T13:37:53.383Z,1.90
2023-01-18T13:40:26.605Z,1.90
2023-01-18T13:42:53.270Z,1.80
2023-01-18T13:45:19.815Z,1.80
2023-01-18T13:47:52.743Z,1.80
2023-01-18T13:50:28.443Z,1.70
2023-01-18T13:53:12.947Z,1.60
2023-01-18T13:55:59.734Z,1.60
2023-01-18T13:58:30.459Z,1.50
2023-01-18T14:01:03.375Z,1.60
2023-01-18T14:03:43.732Z,1.50
2023-01-18T14:06:25.639Z,1.50
2023-01-18T14:09:00.931Z,1.50
2023-01-18T14:11:34.374Z,1.40
2023-01-18T14:14:04.896Z,1.50
2023-01-18T14:16:38.190Z,1.50
2023-01-18T14:19:17.092Z,1.40
2023-01-18T14:22:07.495Z,1.40
2023-01-18T14:24:55.824Z,1.40
2023-01-18T14:27:25.394Z,1.30
2023-01-18T14:30:04.312Z,1.30
2023-01-18T14:32:39.530Z,1.30
2023-01-18T14:35:25.329Z,1.30
2023-01-18T14:37:53.752Z,1.20
2023-01-18T14:40:24.708Z,1.20
2023-01-18T14:43:06.292Z,1.20
2023-01-18T14:45:38.923Z,1.20
2023-01-18T14:48:11.702Z,1.20
2023-01-18T14:50:41.770Z,1.10
2023-01-18T14:53:17.924Z,1.20
2023-01-18T14:56:05.930Z,1.20
2023-01-18T14:58:36.401Z,1.20
2023-01-18T15:01:03.879Z,1.10
2023-01-18T15:03:31.743Z,1.20
2023-01-18T15:06:09.774Z,1.10
2023-01-18T15:08:37.360Z,1.10
2023-01-18T15:11:07.255Z,1.10
2023-01-18T15:13:47.235Z,1.10
2023-01-18T15:16:21.664Z,1.10
2023-01-18T15:18:53.329Z,1.20
2023-01-18T15:21:24.285Z,1.20
2023-01-18T15:23:53.418Z,1.20
2023-01-18T15:26:35.133Z,1.20
2023-01-18T15:29:13.420Z,1.20
2023-01-18T15:31:48.477Z,1.10
2023-01-18T15:34:16.778Z,1.10
2023-01-18T15:36:44.788Z,1.10
2023-01-18T15:39:13.202Z,1.10
2023-01-18T15:41:43.234Z,1.00
2023-01-18T15:44:49.272Z,1.00
2023-01-18T15:47:22.560Z,1.00
2023-01-18T15:49:51.357Z,0.90
2023-01-18T15:52:39.237Z,0.90
2023-01-18T15:55:14.210Z,0.90
2023-01-18T15:57:41.774Z,0.90
2023-01-18T16:00:28.091Z,0.90
2023-01-18T16:02:55.714Z,0.80
2023-01-18T16:05:25.385Z,0.90
2023-01-18T16:08:16.197Z,0.80
2023-01-18T16:10:54.762Z,0.80
2023-01-18T16:13:31.993Z,0.80
2023-01-18T16:16:09.581Z,0.80
2023-01-18T16:18:36.250Z,0.80
2023-01-18T16:21:12.178Z,0.80
2023-01-18T16:23:43.684Z,0.80
2023-01-18T16:26:12.578Z,0.70
2023-01-18T16:28:39.314Z,0.70
2023-01-18T16:31:06.314Z,0.70
2023-01-18T16:33:32.902Z,0.70
2023-01-18T16:35:59.457Z,0.70
2023-01-18T16:38:26.021Z,0.80
2023-01-18T16:40:52.629Z,0.80
2023-01-18T16:43:19.154Z,0.80
2023-01-18T16:45:48.453Z,0.80
2023-01-18T16:48:17.211Z,0.70
2023-01-18T16:50:45.048Z,0.70
2023-01-18T16:53:12.261Z,0.70
2023-01-18T16:55:39.672Z,0.70
2023-01-18T16:58:06.447Z,0.70
2023-01-18T17:00:54.646Z,0.60
2023-01-18T17:03:21.272Z,0.60
2023-01-18T17:05:47.959Z,0.50
2023-01-18T17:08:15.976Z,0.40
2023-01-18T17:10:44.827Z,0.40
2023-01-18T17:13:11.484Z,0.40
2023-01-18T17:15:41.627Z,0.40
2023-01-18T17:18:17.091Z,0.30
2023-01-18T17:20:44.515Z,0.20
2023-01-18T17:23:11.530Z,0.20
2023-01-18T17:25:38.530Z,0.10
2023-01-18T17:28:05.318Z,0.10
2023-01-18T17:30:32.838Z,0.10
2023-01-18T17:32:59.667Z,0.00
2023-01-18T17:35:28.450Z,0.00
2023-01-18T17:38:01.031Z,-0.10
2023-01-18T17:40:40.109Z,-0.10
2023-01-18T17:43:22.165Z,-0.10
2023-01-18T17:46:00.687Z,-0.20
2023-01-18T17:48:28.416Z,-0.20
2023-01-18T17:50:54.965Z,-0.30
2023-01-18T17:53:21.564Z,-0.30
2023-01-18T17:55:48.180Z,-0.40
2023-01-18T17:58:14.814Z,-0.50
2023-01-18T18:00:41.620Z,-0.50
2023-01-18T18:03:09.261Z,-0.50
2023-01-18T18:05:36.116Z,-0.50
2023-01-18T18:08:02.693Z,-0.50
2023-01-18T18:10:29.359Z,-0.50
2023-01-18T18:12:55.904Z,-0.50
2023-01-18T18:15:23.441Z,-0.40
2023-01-18T18:17:50.039Z,-0.40
2023-01-18T18:20:17.050Z,-0.30
2023-01-18T18:22:43.778Z,-0.30
2023-01-18T18:25:10.433Z,-0.30
2023-01-18T18:27:45.365Z,-0.20
2023-01-18T18:30:13.153Z,-0.20
2023-01-18T18:32:39.857Z,-0.20
2023-01-18T18:35:23.211Z,-0.20
2023-01-18T18:37:51.511Z,-0.20
2023-01-18T18:40:19.391Z,-0.20
2023-01-18T18:42:56.401Z,-0.30
2023-01-18T18:45:27.238Z,-0.30
2023-01-18T18:47:53.839Z,-0.30
2023-01-18T18:50:20.492Z,-0.40
2023-01-18T18:52:47.117Z,-0.40
2023-01-18T18:55:13.961Z,-0.40
2023-01-18T18:57:40.601Z,-0.40
2023-01-18T19:00:08.143Z,-0.40
2023-01-18T19:02:35.122Z,-0.40
2023-01-18T19:05:01.891Z,-0.40
2023-01-18T19:07:28.894Z,-0.40
2023-01-18T19:09:55.724Z,-0.40
2023-01-18T19:12:22.406Z,-0.40
2023-01-18T19:14:49.032Z,-0.30
2023-01-18T19:17:25.190Z,-0.30
2023-01-18T19:19:56.363Z,-0.30
2023-01-18T19:22:23.128Z,-0.30
2023-01-18T19:24:49.736Z,-0.30
2023-01-18T19:27:16.472Z,-0.40
2023-01-18T19:29:43.241Z,-0.40
2023-01-18T19:32:10.128Z,-0.50
2023-01-18T19:34:38.319Z,-0.50
2023-01-18T19:37:05.131Z,-0.60
2023-01-18T19:39:34.555Z,-0.60
2023-01-18T19:42:01.885Z,-0.70
2023-01-18T19:44:28.563Z,-0.70
2023-01-18T19:46:56.709Z,-0.80
2023-01-18T19:49:24.976Z,-0.80
2023-01-18T19:51:52.547Z,-0.80
2023-01-18T19:54:19.149Z,-0.80
2023-01-18T19:56:45.747Z,-0.80
2023-01-18T19:59:14.382Z,-0.90
2023-01-18T20:01:41.088Z,-0.80
2023-01-18T20:04:08.134Z,-0.80
2023-01-18T20:06:37.370Z,-0.90
2023-01-18T20:09:12.586Z,-0.90
2023-01-18T20:11:44.960Z,-0.90
2023-01-18T20:14:13.060Z,-0.90
2023-01-18T20:16:39.830Z,-0.90
2023-01-18T20:19:06.727Z,-0.90
2023-01-18T20:21:33.343Z,-0.90
2023-01-18T20:24:00.883Z,-0.90
2023-01-18T20:26:36.745Z,-0.80
2023-01-18T20:29:08.430Z,-0.80
2023-01-18T20:31:36.241Z,-0.90
2023-01-18T20:34:04.071Z,-0.90
2023-01-18T20:36:31.021Z,-0.90
2023-01-18T20:38:57.672Z,-1.00
2023-01-18T20:41:24.243Z,-1.00
2023-01-18T20:43:51.082Z,-1.00
2023-01-18T20:46:17.827Z,-1.00
2023-01-18T20:48:44.420Z,-1.10
2023-01-18T20:51:11.080Z,-1.10
2023-01-18T20:53:40.436Z,-1.10
2023-01-18T20:56:27.826Z,-1.20
2023-01-18T20:58:55.205Z,-1.30
2023-01-18T21:01:21.910Z,-1.30
2023-01-18T21:03:55.627Z,-1.40
2023-01-18T21:06:22.519Z,-1.40
2023-01-18T21:08:52.407Z,-1.50
2023-01-18T21:11:22.767Z,-1.40
2023-01-18T21:13:50.016Z,-1.40
2023-01-18T21:16:17.123Z,-1.40
2023-01-18T21:18:43.763Z,-1.40
2023-01-18T21:21:10.335Z,-1.40
2023-01-18T21:23:39.825Z,-1.40
2023-01-18T21:26:08.883Z,-1.40
2023-01-18T21:28:35.864Z,-1.40
2023-01-18T21:31:02.583Z,-1.40
2023-01-18T21:33:29.410Z,-1.50
2023-01-18T21:35:56.246Z,-1.60
2023-01-18T21:38:23.173Z,-1.60
2023-01-18T21:40:50.043Z,-1.70
2023-01-18T21:43:37.736Z,-1.60
2023-01-18T21:46:06.558Z,-1.60
2023-01-18T21:48:33.512Z,-1.70
2023-01-18T21:51:21.612Z,-1.70
2023-01-18T21:54:07.734Z,-1.70
2023-01-18T21:56:36.938Z,-1.70
2023-01-18T21:59:03.564Z,-1.70
2023-01-18T22:01:37.693Z,-1.80
2023-01-18T22:04:28.199Z,-1.80
2023-01-18T22:06:57.580Z,-1.80
2023-01-18T22:09:24.434Z,-1.80
2023-01-18T22:11:51.162Z,-1.70
2023-01-18T22:14:17.886Z,-1.70
2023-01-18T22:16:44.490Z,-1.60
2023-01-18T22:19:11.939Z,-1.60
2023-01-18T22:21:38.733Z,-1.70
2023-01-18T22:24:06.508Z,-1.70
2023-01-18T22:26:36.029Z,-1.80
2023-01-18T22:29:02.990Z,-1.80
2023-01-18T22:31:29.643Z,-1.90
2023-01-18T22:33:57.155Z,-1.90
2023-01-18T22:36:24.117Z,-2.00
2023-01-18T22:38:51.710Z,-2.10
2023-01-18T22:41:21.123Z,-2.10
2023-01-18T22:43:47.853Z,-2.30
2023-01-18T22:46:19.442Z,-2.30
2023-01-18T22:48:46.745Z,-2.40
2023-01-18T22:51:16.536Z,-2.50
2023-01-18T22:53:44.247Z,-2.60
2023-01-18T22:56:14.405Z,-2.60
2023-01-18T22:58:41.203Z,-2.70
2023-01-18T23:01:17.150Z,-2.80
2023-01-18T23:03:45.190Z,-2.80
2023-01-18T23:06:12.245Z,-2.80
2023-01-18T23:08:44.585Z,-2.90
2023-01-18T23:11:13.903Z,-3.00
2023-01-18T23:13:42.328Z,-3.00
2023-01-18T23:16:31.779Z,-3.00
2023-01-18T23:18:58.763Z,-2.80
2023-01-18T23:21:25.364Z,-3.00
2023-01-18T23:23:52.007Z,-3.10
2023-01-18T23:26:18.615Z,-3.10
2023-01-18T23:28:45.322Z,-3.10
2023-01-18T23:31:15.188Z,-3.00
2023-01-18T23:33:42.466Z,-2.60
2023-01-18T23:36:10.562Z,-2.90
2023-01-18T23:38:56.581Z,-2.90
2023-01-18T23:41:41.994Z,-3.00
2023-01-18T23:44:27.572Z,-3.10
2023-01-18T23:47:12.895Z,-3.10
2023-01-18T23:49:58.330Z,-3.10
2023-01-18T23:52:43.656Z,-3.20
2023-01-18T23:55:10.475Z,-3.20
2023-01-18T23:57:37.055Z,-3.10
